Hovedside
METAR-TAF:

METAR-TAF

Lufthavner :

Kosrae, Mikronesia

breddegrad: 05-21N, lengdegrad: 162-57E, høyde over havet: 3 m

Gjeldene værobservasjon

Denne rapporten ble laget for 2 timer og 44 minutter siden, klokken 22:50 UTC
Vind 9 kt fra Øst-nordøst
Temperatur 31°C
Luftfuktighet 71%
Trykk 1008 hPa
Sikt: 16.1 km
Spredte skyer i en høyde av 2200 ft
Spredte skyer i en høyde av 13000 ft
Brutte skyer i en høyde av 30000 ft

METAR: PTSA 192250Z 06009KT 10SM SCT022 SCT130 BKN300 31/25 A2978 RMK LAST

Tid: 12:34 (01:34 UTC)

Varsel

Denne rapporten ble laget for 2 timer og 0 minutter siden, klokken 23:34 UTC
Varsel gyldig fra 20. klokken 00 UTC til 20. klokken 24 UTC
Vind 11 kt fra Øst-nordøst
Sikt: 10 km
Spredte skyer i en høyde av 2000 ft
byger på avstand,

TAF: PTSA 192334Z 2000/2024 06011KT P6SM VCSH SCT020

Værobservasjoner og værvarsel for over 4000 flyplasser (METAR- og TAF-rapporter).

Tilgjengelige stasjoner er representert av de røde og gule prikkene på kartet.

Hold musepekeren over prikken for å se navnet på stasjonen.

Klikk så for å se værobservasjoner og -varsler.

For å forandre kartet kan du klikke på den grønne knappen med svart kryss for å zoome inn, på den grønne knappen med strek for å zoome ut, eller på de grønne pilene for å se tilstøtende kart.


METAR-TAF: